sensor_id;sensor_type;location;lat;lon;timestamp;P1;durP1;ratioP1;P2;durP2;ratioP2
17382;SDS011;8809;51.892;8.384;2023-05-10T00:00:29;5.93;;;3.80;;
17382;SDS011;8809;51.892;8.384;2023-05-10T00:02:58;4.72;;;4.20;;
17382;SDS011;8809;51.892;8.384;2023-05-10T00:05:27;4.53;;;3.78;;
17382;SDS011;8809;51.892;8.384;2023-05-10T00:07:54;4.18;;;3.78;;
17382;SDS011;8809;51.892;8.384;2023-05-10T00:10:22;4.68;;;4.18;;
17382;SDS011;8809;51.892;8.384;2023-05-10T00:12:49;5.32;;;4.40;;
17382;SDS011;8809;51.892;8.384;2023-05-10T00:15:17;4.97;;;3.97;;
17382;SDS011;8809;51.892;8.384;2023-05-10T00:17:44;4.07;;;3.67;;
17382;SDS011;8809;51.892;8.384;2023-05-10T00:20:11;5.90;;;4.25;;
17382;SDS011;8809;51.892;8.384;2023-05-10T00:22:42;4.95;;;4.05;;
17382;SDS011;8809;51.892;8.384;2023-05-10T00:25:09;5.90;;;5.00;;
17382;SDS011;8809;51.892;8.384;2023-05-10T00:27:39;5.30;;;4.47;;
17382;SDS011;8809;51.892;8.384;2023-05-10T00:30:09;4.95;;;4.40;;
17382;SDS011;8809;51.892;8.384;2023-05-10T00:32:37;5.13;;;4.63;;
17382;SDS011;8809;51.892;8.384;2023-05-10T00:35:05;5.55;;;4.07;;
17382;SDS011;8809;51.892;8.384;2023-05-10T00:37:33;4.97;;;4.35;;
17382;SDS011;8809;51.892;8.384;2023-05-10T00:40:04;4.88;;;4.03;;
17382;SDS011;8809;51.892;8.384;2023-05-10T00:42:33;4.30;;;3.88;;
17382;SDS011;8809;51.892;8.384;2023-05-10T00:45:00;4.05;;;3.65;;
17382;SDS011;8809;51.892;8.384;2023-05-10T00:47:28;4.20;;;3.80;;
17382;SDS011;8809;51.892;8.384;2023-05-10T00:49:57;4.60;;;3.78;;
17382;SDS011;8809;51.892;8.384;2023-05-10T00:52:26;3.97;;;3.60;;
17382;SDS011;8809;51.892;8.384;2023-05-10T00:54:53;4.22;;;3.78;;
17382;SDS011;8809;51.892;8.384;2023-05-10T00:57:22;4.57;;;4.18;;
17382;SDS011;8809;51.892;8.384;2023-05-10T00:59:51;3.65;;;3.35;;
17382;SDS011;8809;51.892;8.384;2023-05-10T01:02:18;3.92;;;3.53;;
17382;SDS011;8809;51.892;8.384;2023-05-10T01:04:46;4.43;;;3.92;;
17382;SDS011;8809;51.892;8.384;2023-05-10T01:07:14;3.92;;;3.53;;
17382;SDS011;8809;51.892;8.384;2023-05-10T01:09:41;4.40;;;3.97;;
17382;SDS011;8809;51.892;8.384;2023-05-10T01:12:08;4.57;;;3.95;;
17382;SDS011;8809;51.892;8.384;2023-05-10T01:14:37;4.45;;;3.47;;
17382;SDS011;8809;51.892;8.384;2023-05-10T01:17:11;5.50;;;4.72;;
17382;SDS011;8809;51.892;8.384;2023-05-10T01:19:40;7.85;;;6.60;;
17382;SDS011;8809;51.892;8.384;2023-05-10T01:22:10;7.15;;;6.30;;
17382;SDS011;8809;51.892;8.384;2023-05-10T01:24:56;6.80;;;5.93;;
17382;SDS011;8809;51.892;8.384;2023-05-10T01:31:02;9.07;;;6.28;;
17382;SDS011;8809;51.892;8.384;2023-05-10T01:33:37;10.15;;;7.95;;
17382;SDS011;8809;51.892;8.384;2023-05-10T01:36:08;10.77;;;7.45;;
17382;SDS011;8809;51.892;8.384;2023-05-10T01:38:43;9.07;;;6.97;;
17382;SDS011;8809;51.892;8.384;2023-05-10T01:41:17;8.43;;;6.57;;
17382;SDS011;8809;51.892;8.384;2023-05-10T01:43:52;8.25;;;6.30;;
17382;SDS011;8809;51.892;8.384;2023-05-10T01:46:26;6.75;;;5.72;;
17382;SDS011;8809;51.892;8.384;2023-05-10T01:48:57;6.35;;;5.15;;
17382;SDS011;8809;51.892;8.384;2023-05-10T01:51:29;6.22;;;5.00;;
17382;SDS011;8809;51.892;8.384;2023-05-10T01:54:08;6.03;;;5.30;;
17382;SDS011;8809;51.892;8.384;2023-05-10T01:56:40;5.65;;;4.57;;
17382;SDS011;8809;51.892;8.384;2023-05-10T01:59:12;4.88;;;4.35;;
17382;SDS011;8809;51.892;8.384;2023-05-10T02:01:43;7.65;;;4.82;;
17382;SDS011;8809;51.892;8.384;2023-05-10T02:04:15;6.93;;;4.93;;
17382;SDS011;8809;51.892;8.384;2023-05-10T02:06:44;6.95;;;5.22;;
17382;SDS011;8809;51.892;8.384;2023-05-10T02:09:13;6.15;;;4.78;;
17382;SDS011;8809;51.892;8.384;2023-05-10T02:11:42;6.55;;;4.88;;
17382;SDS011;8809;51.892;8.384;2023-05-10T02:16:47;5.55;;;4.93;;
17382;SDS011;8809;51.892;8.384;2023-05-10T02:19:18;8.93;;;5.78;;
17382;SDS011;8809;51.892;8.384;2023-05-10T02:21:46;7.35;;;5.60;;
17382;SDS011;8809;51.892;8.384;2023-05-10T02:24:14;5.47;;;4.53;;
17382;SDS011;8809;51.892;8.384;2023-05-10T02:26:42;7.10;;;5.03;;
17382;SDS011;8809;51.892;8.384;2023-05-10T02:29:12;7.28;;;5.30;;
17382;SDS011;8809;51.892;8.384;2023-05-10T02:31:41;9.10;;;6.38;;
17382;SDS011;8809;51.892;8.384;2023-05-10T02:34:08;8.38;;;6.45;;
17382;SDS011;8809;51.892;8.384;2023-05-10T02:36:39;8.02;;;6.15;;
17382;SDS011;8809;51.892;8.384;2023-05-10T02:39:07;7.82;;;6.15;;
17382;SDS011;8809;51.892;8.384;2023-05-10T02:41:42;8.38;;;6.25;;
17382;SDS011;8809;51.892;8.384;2023-05-10T02:44:14;10.18;;;7.82;;
17382;SDS011;8809;51.892;8.384;2023-05-10T02:46:44;8.73;;;6.68;;
17382;SDS011;8809;51.892;8.384;2023-05-10T02:49:12;8.48;;;6.40;;
17382;SDS011;8809;51.892;8.384;2023-05-10T02:51:42;11.68;;;6.80;;
17382;SDS011;8809;51.892;8.384;2023-05-10T02:54:15;7.63;;;5.75;;
17382;SDS011;8809;51.892;8.384;2023-05-10T02:56:47;13.70;;;8.82;;
17382;SDS011;8809;51.892;8.384;2023-05-10T02:59:16;13.25;;;8.38;;
17382;SDS011;8809;51.892;8.384;2023-05-10T03:01:43;13.05;;;8.85;;
17382;SDS011;8809;51.892;8.384;2023-05-10T03:04:14;13.85;;;8.70;;
17382;SDS011;8809;51.892;8.384;2023-05-10T03:06:42;14.63;;;9.38;;
17382;SDS011;8809;51.892;8.384;2023-05-10T03:09:11;16.38;;;10.23;;
17382;SDS011;8809;51.892;8.384;2023-05-10T03:11:43;14.82;;;10.30;;
17382;SDS011;8809;51.892;8.384;2023-05-10T03:14:25;18.02;;;10.95;;
17382;SDS011;8809;51.892;8.384;2023-05-10T03:17:10;16.80;;;10.93;;
17382;SDS011;8809;51.892;8.384;2023-05-10T03:19:43;16.83;;;10.65;;
17382;SDS011;8809;51.892;8.384;2023-05-10T03:22:20;14.07;;;9.00;;
17382;SDS011;8809;51.892;8.384;2023-05-10T03:24:51;13.13;;;8.55;;
17382;SDS011;8809;51.892;8.384;2023-05-10T03:27:22;12.48;;;8.68;;
17382;SDS011;8809;51.892;8.384;2023-05-10T03:29:52;12.68;;;8.82;;
17382;SDS011;8809;51.892;8.384;2023-05-10T03:32:23;12.38;;;8.65;;
17382;SDS011;8809;51.892;8.384;2023-05-10T03:34:52;12.35;;;8.57;;
17382;SDS011;8809;51.892;8.384;2023-05-10T03:37:20;9.30;;;7.15;;
17382;SDS011;8809;51.892;8.384;2023-05-10T03:39:47;9.90;;;6.30;;
17382;SDS011;8809;51.892;8.384;2023-05-10T03:42:14;9.60;;;6.78;;
17382;SDS011;8809;51.892;8.384;2023-05-10T03:44:45;8.43;;;6.15;;
17382;SDS011;8809;51.892;8.384;2023-05-10T03:47:11;10.77;;;5.82;;
17382;SDS011;8809;51.892;8.384;2023-05-10T03:49:38;7.32;;;5.00;;
17382;SDS011;8809;51.892;8.384;2023-05-10T03:52:06;4.97;;;4.00;;
17382;SDS011;8809;51.892;8.384;2023-05-10T03:54:34;4.65;;;3.38;;
17382;SDS011;8809;51.892;8.384;2023-05-10T03:57:01;6.07;;;3.63;;
17382;SDS011;8809;51.892;8.384;2023-05-10T03:59:31;3.35;;;2.72;;
17382;SDS011;8809;51.892;8.384;2023-05-10T04:01:59;3.55;;;2.40;;
17382;SDS011;8809;51.892;8.384;2023-05-10T04:04:26;2.05;;;1.85;;
17382;SDS011;8809;51.892;8.384;2023-05-10T04:06:53;3.33;;;2.95;;
17382;SDS011;8809;51.892;8.384;2023-05-10T04:09:21;2.63;;;2.10;;
17382;SDS011;8809;51.892;8.384;2023-05-10T04:11:49;2.25;;;1.92;;
17382;SDS011;8809;51.892;8.384;2023-05-10T04:14:16;3.38;;;1.92;;
17382;SDS011;8809;51.892;8.384;2023-05-10T04:16:44;3.55;;;2.30;;
17382;SDS011;8809;51.892;8.384;2023-05-10T04:19:12;3.38;;;2.13;;
17382;SDS011;8809;51.892;8.384;2023-05-10T04:21:48;2.15;;;1.80;;
17382;SDS011;8809;51.892;8.384;2023-05-10T04:24:17;2.50;;;1.80;;
17382;SDS011;8809;51.892;8.384;2023-05-10T04:26:44;2.70;;;2.10;;
17382;SDS011;8809;51.892;8.384;2023-05-10T04:29:13;1.95;;;1.80;;
17382;SDS011;8809;51.892;8.384;2023-05-10T04:31:40;3.25;;;2.17;;
17382;SDS011;8809;51.892;8.384;2023-05-10T04:34:07;2.30;;;2.10;;
17382;SDS011;8809;51.892;8.384;2023-05-10T04:36:34;2.05;;;1.85;;
17382;SDS011;8809;51.892;8.384;2023-05-10T04:39:02;2.05;;;1.88;;
17382;SDS011;8809;51.892;8.384;2023-05-10T04:41:29;2.92;;;2.20;;
17382;SDS011;8809;51.892;8.384;2023-05-10T04:43:56;4.25;;;2.58;;
17382;SDS011;8809;51.892;8.384;2023-05-10T04:46:24;2.40;;;1.92;;
17382;SDS011;8809;51.892;8.384;2023-05-10T04:48:51;2.95;;;2.40;;
17382;SDS011;8809;51.892;8.384;2023-05-10T04:51:18;2.80;;;2.50;;
17382;SDS011;8809;51.892;8.384;2023-05-10T04:53:46;3.25;;;2.55;;
17382;SDS011;8809;51.892;8.384;2023-05-10T04:56:13;2.83;;;2.55;;
17382;SDS011;8809;51.892;8.384;2023-05-10T04:58:41;3.03;;;2.72;;
17382;SDS011;8809;51.892;8.384;2023-05-10T05:01:08;2.97;;;2.45;;
17382;SDS011;8809;51.892;8.384;2023-05-10T05:03:37;3.15;;;2.75;;
17382;SDS011;8809;51.892;8.384;2023-05-10T05:06:04;3.00;;;2.70;;
17382;SDS011;8809;51.892;8.384;2023-05-10T05:08:33;3.05;;;2.75;;
17382;SDS011;8809;51.892;8.384;2023-05-10T05:11:00;3.10;;;2.80;;
17382;SDS011;8809;51.892;8.384;2023-05-10T05:13:27;2.80;;;2.53;;
17382;SDS011;8809;51.892;8.384;2023-05-10T05:15:55;2.50;;;2.30;;
17382;SDS011;8809;51.892;8.384;2023-05-10T05:18:29;3.22;;;2.40;;
17382;SDS011;8809;51.892;8.384;2023-05-10T05:20:57;3.60;;;2.80;;
17382;SDS011;8809;51.892;8.384;2023-05-10T05:23:28;3.42;;;2.63;;
17382;SDS011;8809;51.892;8.384;2023-05-10T05:25:55;3.58;;;2.70;;
17382;SDS011;8809;51.892;8.384;2023-05-10T05:28:22;5.20;;;2.83;;
17382;SDS011;8809;51.892;8.384;2023-05-10T05:30:49;3.17;;;2.60;;
17382;SDS011;8809;51.892;8.384;2023-05-10T05:33:16;4.18;;;2.40;;
17382;SDS011;8809;51.892;8.384;2023-05-10T05:35:44;2.67;;;2.42;;
17382;SDS011;8809;51.892;8.384;2023-05-10T05:38:17;2.50;;;2.30;;
17382;SDS011;8809;51.892;8.384;2023-05-10T05:40:45;3.35;;;2.40;;
17382;SDS011;8809;51.892;8.384;2023-05-10T05:43:15;3.80;;;2.60;;
17382;SDS011;8809;51.892;8.384;2023-05-10T05:45:43;2.75;;;2.28;;
17382;SDS011;8809;51.892;8.384;2023-05-10T05:48:16;2.65;;;2.40;;
17382;SDS011;8809;51.892;8.384;2023-05-10T05:50:44;2.35;;;2.15;;
17382;SDS011;8809;51.892;8.384;2023-05-10T05:53:23;3.40;;;2.40;;
17382;SDS011;8809;51.892;8.384;2023-05-10T05:55:51;2.80;;;2.60;;
17382;SDS011;8809;51.892;8.384;2023-05-10T05:58:20;2.95;;;2.42;;
17382;SDS011;8809;51.892;8.384;2023-05-10T06:00:47;4.85;;;3.00;;
17382;SDS011;8809;51.892;8.384;2023-05-10T06:03:14;3.28;;;2.60;;
17382;SDS011;8809;51.892;8.384;2023-05-10T06:05:42;2.78;;;2.40;;
17382;SDS011;8809;51.892;8.384;2023-05-10T06:08:10;2.22;;;2.00;;
17382;SDS011;8809;51.892;8.384;2023-05-10T06:10:39;3.42;;;2.67;;
17382;SDS011;8809;51.892;8.384;2023-05-10T06:13:06;3.20;;;2.42;;
17382;SDS011;8809;51.892;8.384;2023-05-10T06:15:33;2.75;;;2.20;;
17382;SDS011;8809;51.892;8.384;2023-05-10T06:18:01;3.50;;;2.40;;
17382;SDS011;8809;51.892;8.384;2023-05-10T06:20:28;3.05;;;2.42;;
17382;SDS011;8809;51.892;8.384;2023-05-10T06:22:56;3.30;;;2.65;;
17382;SDS011;8809;51.892;8.384;2023-05-10T06:25:23;2.92;;;2.45;;
17382;SDS011;8809;51.892;8.384;2023-05-10T06:27:52;3.95;;;2.47;;
17382;SDS011;8809;51.892;8.384;2023-05-10T06:30:23;3.95;;;2.70;;
17382;SDS011;8809;51.892;8.384;2023-05-10T06:32:53;2.58;;;2.38;;
17382;SDS011;8809;51.892;8.384;2023-05-10T06:35:20;3.78;;;3.25;;
17382;SDS011;8809;51.892;8.384;2023-05-10T06:37:49;4.28;;;3.22;;
17382;SDS011;8809;51.892;8.384;2023-05-10T06:40:16;5.03;;;3.10;;
17382;SDS011;8809;51.892;8.384;2023-05-10T06:42:44;5.35;;;3.45;;
17382;SDS011;8809;51.892;8.384;2023-05-10T06:45:13;9.98;;;4.80;;
17382;SDS011;8809;51.892;8.384;2023-05-10T06:47:41;7.32;;;4.55;;
17382;SDS011;8809;51.892;8.384;2023-05-10T06:50:09;8.90;;;5.50;;
17382;SDS011;8809;51.892;8.384;2023-05-10T06:52:38;8.00;;;4.85;;
17382;SDS011;8809;51.892;8.384;2023-05-10T06:55:05;8.43;;;4.93;;
17382;SDS011;8809;51.892;8.384;2023-05-10T06:57:34;9.98;;;6.05;;
17382;SDS011;8809;51.892;8.384;2023-05-10T07:00:01;14.60;;;7.25;;
17382;SDS011;8809;51.892;8.384;2023-05-10T07:02:32;20.88;;;9.45;;
17382;SDS011;8809;51.892;8.384;2023-05-10T07:04:59;14.77;;;7.80;;
17382;SDS011;8809;51.892;8.384;2023-05-10T07:07:27;18.13;;;7.60;;
17382;SDS011;8809;51.892;8.384;2023-05-10T07:09:57;12.48;;;7.32;;
17382;SDS011;8809;51.892;8.384;2023-05-10T07:12:25;13.23;;;7.18;;
17382;SDS011;8809;51.892;8.384;2023-05-10T07:14:52;13.18;;;7.30;;
17382;SDS011;8809;51.892;8.384;2023-05-10T07:17:19;15.07;;;7.80;;
17382;SDS011;8809;51.892;8.384;2023-05-10T07:19:48;14.15;;;7.32;;
17382;SDS011;8809;51.892;8.384;2023-05-10T07:22:15;15.60;;;7.88;;
17382;SDS011;8809;51.892;8.384;2023-05-10T07:24:44;13.88;;;8.35;;
17382;SDS011;8809;51.892;8.384;2023-05-10T07:27:11;14.60;;;8.65;;
17382;SDS011;8809;51.892;8.384;2023-05-10T07:29:38;13.75;;;8.13;;
17382;SDS011;8809;51.892;8.384;2023-05-10T07:32:05;12.38;;;7.53;;
17382;SDS011;8809;51.892;8.384;2023-05-10T07:34:32;14.05;;;7.93;;
17382;SDS011;8809;51.892;8.384;2023-05-10T07:37:01;14.70;;;8.43;;
17382;SDS011;8809;51.892;8.384;2023-05-10T07:39:28;12.50;;;7.70;;
17382;SDS011;8809;51.892;8.384;2023-05-10T07:41:55;13.25;;;7.80;;
17382;SDS011;8809;51.892;8.384;2023-05-10T07:44:24;15.75;;;8.95;;
17382;SDS011;8809;51.892;8.384;2023-05-10T07:46:51;15.23;;;7.78;;
17382;SDS011;8809;51.892;8.384;2023-05-10T07:49:18;11.85;;;7.75;;
17382;SDS011;8809;51.892;8.384;2023-05-10T07:51:45;16.33;;;9.35;;
17382;SDS011;8809;51.892;8.384;2023-05-10T07:54:15;17.60;;;9.65;;
17382;SDS011;8809;51.892;8.384;2023-05-10T07:56:43;20.35;;;11.00;;
17382;SDS011;8809;51.892;8.384;2023-05-10T07:59:14;19.10;;;10.52;;
17382;SDS011;8809;51.892;8.384;2023-05-10T08:01:44;17.25;;;10.02;;
17382;SDS011;8809;51.892;8.384;2023-05-10T08:04:12;16.15;;;10.20;;
17382;SDS011;8809;51.892;8.384;2023-05-10T08:06:41;17.85;;;10.85;;
17382;SDS011;8809;51.892;8.384;2023-05-10T08:09:17;22.48;;;13.35;;
17382;SDS011;8809;51.892;8.384;2023-05-10T08:11:50;23.58;;;14.20;;
17382;SDS011;8809;51.892;8.384;2023-05-10T08:14:17;22.90;;;13.73;;
17382;SDS011;8809;51.892;8.384;2023-05-10T08:16:44;24.13;;;15.15;;
17382;SDS011;8809;51.892;8.384;2023-05-10T08:19:14;21.92;;;13.30;;
17382;SDS011;8809;51.892;8.384;2023-05-10T08:21:44;25.08;;;14.73;;
17382;SDS011;8809;51.892;8.384;2023-05-10T08:24:11;26.83;;;15.40;;
17382;SDS011;8809;51.892;8.384;2023-05-10T08:26:51;20.65;;;12.73;;
17382;SDS011;8809;51.892;8.384;2023-05-10T08:29:18;27.63;;;14.55;;
17382;SDS011;8809;51.892;8.384;2023-05-10T08:31:45;27.52;;;15.95;;
17382;SDS011;8809;51.892;8.384;2023-05-10T08:34:12;32.33;;;18.67;;
17382;SDS011;8809;51.892;8.384;2023-05-10T08:36:39;29.45;;;16.88;;
17382;SDS011;8809;51.892;8.384;2023-05-10T08:39:06;26.45;;;16.85;;
17382;SDS011;8809;51.892;8.384;2023-05-10T08:41:35;33.60;;;18.10;;
17382;SDS011;8809;51.892;8.384;2023-05-10T08:44:07;26.40;;;16.25;;
17382;SDS011;8809;51.892;8.384;2023-05-10T08:46:35;25.13;;;15.63;;
17382;SDS011;8809;51.892;8.384;2023-05-10T08:49:05;27.10;;;15.93;;
17382;SDS011;8809;51.892;8.384;2023-05-10T08:51:35;27.77;;;16.50;;
17382;SDS011;8809;51.892;8.384;2023-05-10T08:54:07;28.38;;;17.23;;
17382;SDS011;8809;51.892;8.384;2023-05-10T08:56:36;33.88;;;18.27;;
17382;SDS011;8809;51.892;8.384;2023-05-10T08:59:08;29.80;;;17.35;;
17382;SDS011;8809;51.892;8.384;2023-05-10T09:01:39;30.55;;;17.20;;
17382;SDS011;8809;51.892;8.384;2023-05-10T09:04:09;31.92;;;19.08;;
17382;SDS011;8809;51.892;8.384;2023-05-10T09:06:37;32.00;;;18.55;;
17382;SDS011;8809;51.892;8.384;2023-05-10T09:09:04;32.90;;;18.70;;
17382;SDS011;8809;51.892;8.384;2023-05-10T09:11:32;35.83;;;20.17;;
17382;SDS011;8809;51.892;8.384;2023-05-10T09:13:59;34.25;;;19.25;;
17382;SDS011;8809;51.892;8.384;2023-05-10T09:16:28;30.58;;;18.88;;
17382;SDS011;8809;51.892;8.384;2023-05-10T09:18:56;31.23;;;18.25;;
17382;SDS011;8809;51.892;8.384;2023-05-10T09:21:24;28.58;;;17.35;;
17382;SDS011;8809;51.892;8.384;2023-05-10T09:23:51;30.50;;;17.45;;
17382;SDS011;8809;51.892;8.384;2023-05-10T09:26:21;26.35;;;15.52;;
17382;SDS011;8809;51.892;8.384;2023-05-10T09:28:52;22.90;;;14.63;;
17382;SDS011;8809;51.892;8.384;2023-05-10T09:34:16;19.27;;;12.95;;
17382;SDS011;8809;51.892;8.384;2023-05-10T09:36:54;20.63;;;13.07;;
17382;SDS011;8809;51.892;8.384;2023-05-10T09:39:31;24.38;;;13.98;;
17382;SDS011;8809;51.892;8.384;2023-05-10T09:42:01;23.92;;;14.77;;
17382;SDS011;8809;51.892;8.384;2023-05-10T09:44:30;23.83;;;14.80;;
17382;SDS011;8809;51.892;8.384;2023-05-10T09:47:00;24.40;;;14.98;;
17382;SDS011;8809;51.892;8.384;2023-05-10T09:49:28;23.63;;;14.98;;
17382;SDS011;8809;51.892;8.384;2023-05-10T09:52:02;22.50;;;14.25;;
17382;SDS011;8809;51.892;8.384;2023-05-10T09:54:31;24.17;;;15.13;;
17382;SDS011;8809;51.892;8.384;2023-05-10T09:57:00;23.08;;;14.32;;
17382;SDS011;8809;51.892;8.384;2023-05-10T09:59:28;17.65;;;12.02;;
17382;SDS011;8809;51.892;8.384;2023-05-10T10:01:56;16.17;;;11.43;;
17382;SDS011;8809;51.892;8.384;2023-05-10T10:04:28;19.77;;;12.93;;
17382;SDS011;8809;51.892;8.384;2023-05-10T10:06:59;17.85;;;12.35;;
17382;SDS011;8809;51.892;8.384;2023-05-10T10:09:28;21.75;;;14.13;;
17382;SDS011;8809;51.892;8.384;2023-05-10T10:12:00;19.38;;;12.90;;
17382;SDS011;8809;51.892;8.384;2023-05-10T10:14:29;20.98;;;13.32;;
17382;SDS011;8809;51.892;8.384;2023-05-10T10:16:57;19.52;;;13.40;;
17382;SDS011;8809;51.892;8.384;2023-05-10T10:19:29;20.77;;;14.05;;
17382;SDS011;8809;51.892;8.384;2023-05-10T10:22:00;16.73;;;11.75;;
17382;SDS011;8809;51.892;8.384;2023-05-10T10:24:28;19.25;;;13.93;;
17382;SDS011;8809;51.892;8.384;2023-05-10T10:26:55;19.70;;;12.93;;
17382;SDS011;8809;51.892;8.384;2023-05-10T10:29:32;23.70;;;15.00;;
17382;SDS011;8809;51.892;8.384;2023-05-10T10:32:08;17.00;;;11.98;;
17382;SDS011;8809;51.892;8.384;2023-05-10T10:34:50;16.58;;;11.07;;
17382;SDS011;8809;51.892;8.384;2023-05-10T10:37:18;14.93;;;10.85;;
17382;SDS011;8809;51.892;8.384;2023-05-10T10:39:48;13.07;;;9.38;;
17382;SDS011;8809;51.892;8.384;2023-05-10T10:45:19;13.18;;;9.27;;
17382;SDS011;8809;51.892;8.384;2023-05-10T10:50:57;11.50;;;8.43;;
17382;SDS011;8809;51.892;8.384;2023-05-10T10:53:26;10.38;;;7.18;;
17382;SDS011;8809;51.892;8.384;2023-05-10T10:58:49;10.95;;;8.05;;
17382;SDS011;8809;51.892;8.384;2023-05-10T11:01:21;10.98;;;7.75;;
17382;SDS011;8809;51.892;8.384;2023-05-10T11:09:49;8.40;;;6.03;;
17382;SDS011;8809;51.892;8.384;2023-05-10T11:12:17;11.75;;;6.97;;
17382;SDS011;8809;51.892;8.384;2023-05-10T11:14:49;11.88;;;8.25;;
17382;SDS011;8809;51.892;8.384;2023-05-10T11:17:35;13.80;;;7.75;;
17382;SDS011;8809;51.892;8.384;2023-05-10T11:20:10;13.32;;;8.38;;
17382;SDS011;8809;51.892;8.384;2023-05-10T11:22:50;11.85;;;8.48;;
17382;SDS011;8809;51.892;8.384;2023-05-10T11:25:30;11.68;;;8.48;;
17382;SDS011;8809;51.892;8.384;2023-05-10T11:27:57;10.95;;;7.45;;
17382;SDS011;8809;51.892;8.384;2023-05-10T11:30:30;15.35;;;10.00;;
17382;SDS011;8809;51.892;8.384;2023-05-10T11:33:01;17.33;;;11.93;;
17382;SDS011;8809;51.892;8.384;2023-05-10T11:35:30;14.25;;;9.95;;
17382;SDS011;8809;51.892;8.384;2023-05-10T11:37:59;15.70;;;9.32;;
17382;SDS011;8809;51.892;8.384;2023-05-10T11:40:26;14.82;;;10.65;;
17382;SDS011;8809;51.892;8.384;2023-05-10T11:42:55;12.50;;;9.20;;
17382;SDS011;8809;51.892;8.384;2023-05-10T11:45:23;14.77;;;9.38;;
17382;SDS011;8809;51.892;8.384;2023-05-10T11:47:51;13.93;;;9.68;;
17382;SDS011;8809;51.892;8.384;2023-05-10T11:50:18;17.27;;;10.65;;
17382;SDS011;8809;51.892;8.384;2023-05-10T11:52:50;13.27;;;8.85;;
17382;SDS011;8809;51.892;8.384;2023-05-10T11:55:20;16.20;;;10.40;;
17382;SDS011;8809;51.892;8.384;2023-05-10T11:57:51;16.70;;;9.95;;
17382;SDS011;8809;51.892;8.384;2023-05-10T12:00:18;13.50;;;9.73;;
17382;SDS011;8809;51.892;8.384;2023-05-10T12:02:47;20.90;;;11.70;;
17382;SDS011;8809;51.892;8.384;2023-05-10T12:05:15;16.05;;;10.50;;
17382;SDS011;8809;51.892;8.384;2023-05-10T12:07:43;12.88;;;8.57;;
17382;SDS011;8809;51.892;8.384;2023-05-10T12:10:12;15.52;;;8.88;;
17382;SDS011;8809;51.892;8.384;2023-05-10T12:12:43;13.80;;;9.52;;
17382;SDS011;8809;51.892;8.384;2023-05-10T12:15:16;16.35;;;11.10;;
17382;SDS011;8809;51.892;8.384;2023-05-10T12:17:44;16.00;;;10.00;;
17382;SDS011;8809;51.892;8.384;2023-05-10T12:20:15;13.85;;;9.27;;
17382;SDS011;8809;51.892;8.384;2023-05-10T12:22:44;13.75;;;9.75;;
17382;SDS011;8809;51.892;8.384;2023-05-10T12:25:12;16.00;;;10.65;;
17382;SDS011;8809;51.892;8.384;2023-05-10T12:27:40;17.88;;;11.10;;
17382;SDS011;8809;51.892;8.384;2023-05-10T12:30:22;14.38;;;9.75;;
17382;SDS011;8809;51.892;8.384;2023-05-10T12:32:52;13.65;;;8.98;;
17382;SDS011;8809;51.892;8.384;2023-05-10T12:35:20;13.02;;;8.30;;
17382;SDS011;8809;51.892;8.384;2023-05-10T12:37:50;17.50;;;10.25;;
17382;SDS011;8809;51.892;8.384;2023-05-10T12:40:17;15.52;;;9.55;;
17382;SDS011;8809;51.892;8.384;2023-05-10T12:42:46;17.20;;;9.68;;
17382;SDS011;8809;51.892;8.384;2023-05-10T12:45:16;12.90;;;9.65;;
17382;SDS011;8809;51.892;8.384;2023-05-10T12:47:44;15.90;;;10.10;;
17382;SDS011;8809;51.892;8.384;2023-05-10T12:50:14;13.95;;;9.45;;
17382;SDS011;8809;51.892;8.384;2023-05-10T12:52:42;12.02;;;8.77;;
17382;SDS011;8809;51.892;8.384;2023-05-10T12:55:09;13.18;;;9.25;;
17382;SDS011;8809;51.892;8.384;2023-05-10T12:57:37;12.57;;;8.50;;
17382;SDS011;8809;51.892;8.384;2023-05-10T13:00:05;11.40;;;7.35;;
17382;SDS011;8809;51.892;8.384;2023-05-10T13:02:35;15.90;;;10.50;;
17382;SDS011;8809;51.892;8.384;2023-05-10T13:05:02;12.13;;;9.25;;
17382;SDS011;8809;51.892;8.384;2023-05-10T13:07:30;16.80;;;10.88;;
17382;SDS011;8809;51.892;8.384;2023-05-10T13:09:58;17.10;;;11.40;;
17382;SDS011;8809;51.892;8.384;2023-05-10T13:12:25;16.67;;;10.63;;
17382;SDS011;8809;51.892;8.384;2023-05-10T13:14:52;14.05;;;9.95;;
17382;SDS011;8809;51.892;8.384;2023-05-10T13:17:19;15.90;;;10.38;;
17382;SDS011;8809;51.892;8.384;2023-05-10T13:19:48;17.35;;;12.25;;
17382;SDS011;8809;51.892;8.384;2023-05-10T13:22:15;20.70;;;12.73;;
17382;SDS011;8809;51.892;8.384;2023-05-10T13:24:42;22.25;;;12.60;;
17382;SDS011;8809;51.892;8.384;2023-05-10T13:27:10;20.95;;;12.15;;
17382;SDS011;8809;51.892;8.384;2023-05-10T13:29:38;17.92;;;11.18;;
17382;SDS011;8809;51.892;8.384;2023-05-10T13:32:06;15.63;;;10.35;;
17382;SDS011;8809;51.892;8.384;2023-05-10T13:34:33;18.20;;;10.93;;
17382;SDS011;8809;51.892;8.384;2023-05-10T13:37:02;18.20;;;10.43;;
17382;SDS011;8809;51.892;8.384;2023-05-10T13:39:29;14.18;;;9.30;;
17382;SDS011;8809;51.892;8.384;2023-05-10T13:41:59;12.63;;;8.88;;
17382;SDS011;8809;51.892;8.384;2023-05-10T13:44:27;13.80;;;8.90;;
17382;SDS011;8809;51.892;8.384;2023-05-10T13:46:54;13.15;;;7.75;;
17382;SDS011;8809;51.892;8.384;2023-05-10T13:49:21;11.55;;;7.95;;
17382;SDS011;8809;51.892;8.384;2023-05-10T13:51:48;10.30;;;7.50;;
17382;SDS011;8809;51.892;8.384;2023-05-10T13:54:20;11.73;;;8.13;;
17382;SDS011;8809;51.892;8.384;2023-05-10T13:56:51;10.50;;;7.13;;
17382;SDS011;8809;51.892;8.384;2023-05-10T13:59:19;8.55;;;6.57;;
17382;SDS011;8809;51.892;8.384;2023-05-10T14:01:52;10.90;;;7.40;;
17382;SDS011;8809;51.892;8.384;2023-05-10T14:04:21;10.70;;;7.85;;
17382;SDS011;8809;51.892;8.384;2023-05-10T14:06:48;11.07;;;7.32;;
17382;SDS011;8809;51.892;8.384;2023-05-10T14:09:16;9.18;;;6.72;;
17382;SDS011;8809;51.892;8.384;2023-05-10T14:11:46;11.50;;;8.10;;
17382;SDS011;8809;51.892;8.384;2023-05-10T14:14:13;11.20;;;7.72;;
17382;SDS011;8809;51.892;8.384;2023-05-10T14:16:41;10.27;;;7.20;;
17382;SDS011;8809;51.892;8.384;2023-05-10T14:19:10;11.07;;;6.97;;
17382;SDS011;8809;51.892;8.384;2023-05-10T14:21:37;10.13;;;7.63;;
17382;SDS011;8809;51.892;8.384;2023-05-10T14:24:05;11.45;;;7.57;;
17382;SDS011;8809;51.892;8.384;2023-05-10T14:26:33;10.15;;;7.00;;
17382;SDS011;8809;51.892;8.384;2023-05-10T14:29:03;10.10;;;6.97;;
17382;SDS011;8809;51.892;8.384;2023-05-10T14:31:31;10.73;;;7.03;;
17382;SDS011;8809;51.892;8.384;2023-05-10T14:33:59;9.20;;;6.53;;
17382;SDS011;8809;51.892;8.384;2023-05-10T14:36:26;10.88;;;7.22;;
17382;SDS011;8809;51.892;8.384;2023-05-10T14:38:54;8.23;;;6.25;;
17382;SDS011;8809;51.892;8.384;2023-05-10T14:41:25;11.25;;;7.80;;
17382;SDS011;8809;51.892;8.384;2023-05-10T14:43:56;13.25;;;9.20;;
17382;SDS011;8809;51.892;8.384;2023-05-10T14:46:25;14.73;;;9.13;;
17382;SDS011;8809;51.892;8.384;2023-05-10T14:48:52;14.48;;;9.27;;
17382;SDS011;8809;51.892;8.384;2023-05-10T14:51:20;15.65;;;9.68;;
17382;SDS011;8809;51.892;8.384;2023-05-10T14:53:47;12.82;;;9.07;;
17382;SDS011;8809;51.892;8.384;2023-05-10T14:56:15;12.52;;;7.85;;
17382;SDS011;8809;51.892;8.384;2023-05-10T14:58:44;13.45;;;8.15;;
17382;SDS011;8809;51.892;8.384;2023-05-10T15:01:11;11.15;;;7.88;;
17382;SDS011;8809;51.892;8.384;2023-05-10T15:03:40;17.98;;;12.50;;
17382;SDS011;8809;51.892;8.384;2023-05-10T15:06:07;14.20;;;10.77;;
17382;SDS011;8809;51.892;8.384;2023-05-10T15:08:36;15.00;;;10.65;;
17382;SDS011;8809;51.892;8.384;2023-05-10T15:11:04;15.88;;;10.48;;
17382;SDS011;8809;51.892;8.384;2023-05-10T15:13:33;16.83;;;10.88;;
17382;SDS011;8809;51.892;8.384;2023-05-10T15:16:04;13.25;;;9.88;;
17382;SDS011;8809;51.892;8.384;2023-05-10T15:18:31;13.18;;;9.82;;
17382;SDS011;8809;51.892;8.384;2023-05-10T15:21:00;15.10;;;9.40;;
17382;SDS011;8809;51.892;8.384;2023-05-10T15:23:28;16.02;;;10.32;;
17382;SDS011;8809;51.892;8.384;2023-05-10T15:25:55;17.95;;;11.05;;